Terminal Aerodrome Forecast
Issued by NWS

Home | Current Version | Previous Version | Text Only | Print | Product List | Glossary On
Versions: 1 2 3 4 5 6 7 8 9 10 11 12 13 14 15 16 17 18
000
FTUS46 KPDT 211700
TAFRDM
TAF
KRDM 211728Z 2118/2218 23008G15KT P6SM SCT060 BKN120
     FM220100 16006KT P6SM BKN120
     FM220900 17010KT P6SM OVC100=

USA.gov is the U.S. government's official web portal to all federal, state and local government web resources and services.